createdAt,value
2022-09-30T00:04:34.422Z,11.1
2022-09-30T00:09:32.693Z,11.2
2022-09-30T00:14:30.799Z,11.1
2022-09-30T00:19:28.952Z,11
2022-09-30T00:24:27.020Z,10.9
2022-09-30T00:29:25.062Z,11
2022-09-30T00:34:23.274Z,11.2
2022-09-30T00:39:21.741Z,11.2
2022-09-30T00:44:19.652Z,11.2
2022-09-30T00:49:17.821Z,11.2
2022-09-30T00:54:16.008Z,11.2
2022-09-30T00:59:14.119Z,10.9
2022-09-30T01:04:12.057Z,10.8
2022-09-30T01:09:10.045Z,10.7
2022-09-30T01:14:07.812Z,10.7
2022-09-30T01:19:05.834Z,10.5
2022-09-30T01:24:03.843Z,10.5
2022-09-30T01:29:01.882Z,10.4
2022-09-30T01:33:59.933Z,10.3
2022-09-30T01:38:58.097Z,10.3
2022-09-30T01:43:56.108Z,10.3
2022-09-30T01:48:54.228Z,10.2
2022-09-30T01:53:52.136Z,10.2
2022-09-30T01:58:50.322Z,10.1
2022-09-30T02:03:48.313Z,10.1
2022-09-30T02:08:46.519Z,10.2
2022-09-30T02:13:44.611Z,10.1
2022-09-30T02:18:42.845Z,10.1
2022-09-30T02:23:41.202Z,10.4
2022-09-30T02:28:40.004Z,10.7
2022-09-30T02:33:38.509Z,10.6
2022-09-30T02:38:36.526Z,10.5
2022-09-30T02:43:34.530Z,10.3
2022-09-30T02:48:32.659Z,10.4
2022-09-30T02:53:31.295Z,10.8
2022-09-30T02:58:29.899Z,11.1
2022-09-30T03:03:28.209Z,11.1
2022-09-30T03:08:26.148Z,11.2
2022-09-30T03:13:24.357Z,11.3
2022-09-30T03:18:22.629Z,11.5
2022-09-30T03:23:20.903Z,11.6
2022-09-30T03:28:19.159Z,11.6
2022-09-30T03:33:17.549Z,11.6
2022-09-30T03:38:15.817Z,11.5
2022-09-30T03:43:13.745Z,11.3
2022-09-30T03:48:11.678Z,10.8
2022-09-30T03:53:10.078Z,10.7
2022-09-30T03:58:08.455Z,10.7
2022-09-30T04:03:06.972Z,10.9
2022-09-30T04:08:05.438Z,10.9
2022-09-30T04:13:03.622Z,10.8
2022-09-30T04:18:01.965Z,10.8
2022-09-30T04:23:00.248Z,10.9
2022-09-30T04:27:58.791Z,11.1
2022-09-30T04:32:56.963Z,11.2
2022-09-30T04:37:54.626Z,11.2
2022-09-30T04:42:53.255Z,11.4
2022-09-30T04:47:52.142Z,11.6
2022-09-30T04:52:50.533Z,11.8
2022-09-30T04:57:49.053Z,12.1
2022-09-30T05:02:47.416Z,12.4
2022-09-30T05:07:46.008Z,12.8
2022-09-30T05:12:44.650Z,13.2
2022-09-30T05:17:43.097Z,13.5
2022-09-30T05:22:41.560Z,14.3
2022-09-30T05:27:40.102Z,14.6
2022-09-30T05:32:38.221Z,14.9
2022-09-30T05:37:36.779Z,15.5
2022-09-30T05:42:35.623Z,16.3
2022-09-30T05:47:34.338Z,16.5
2022-09-30T05:52:32.444Z,16.4
2022-09-30T05:57:30.613Z,16.3
2022-09-30T06:02:28.632Z,16.4
2022-09-30T06:07:27.528Z,16.8
2022-09-30T06:12:26.153Z,17.7
2022-09-30T06:17:25.217Z,18.4
2022-09-30T06:22:25.356Z,20.8
2022-09-30T06:27:23.707Z,20.9
2022-09-30T06:32:22.490Z,20.7
2022-09-30T06:37:19.545Z,19.5
2022-09-30T06:42:17.535Z,20.1
2022-09-30T06:47:22.861Z,19.7
2022-09-30T06:52:13.586Z,21.2
2022-09-30T06:57:14.603Z,22.8
2022-09-30T07:02:13.861Z,24.4
2022-09-30T07:07:15.363Z,26.9
2022-09-30T07:12:14.991Z,28.5
2022-09-30T07:17:14.430Z,29.7
2022-09-30T07:22:12.097Z,29.1
2022-09-30T07:27:11.146Z,29.6
2022-09-30T07:32:09.961Z,30.3
2022-09-30T07:37:07.638Z,29.8
2022-09-30T07:42:06.887Z,31.7
2022-09-30T07:47:05.823Z,31.5
2022-09-30T07:52:04.412Z,31.7
2022-09-30T07:57:11.506Z,32.8
2022-09-30T08:02:01.691Z,32.2
2022-09-30T08:07:00.112Z,33.5
2022-09-30T08:11:59.267Z,33.8
2022-09-30T08:16:57.352Z,34.4
2022-09-30T08:21:56.299Z,34.9
2022-09-30T08:26:55.007Z,34.8
2022-09-30T08:31:52.470Z,34.1
2022-09-30T08:36:50.577Z,34.4
2022-09-30T08:41:49.376Z,34.3
2022-09-30T08:46:47.227Z,35.6
2022-09-30T08:51:45.721Z,35.5
2022-09-30T08:56:43.221Z,34.3
2022-09-30T09:01:41.764Z,35.4
2022-09-30T09:06:40.550Z,35.7
2022-09-30T09:11:41.217Z,34.4
2022-09-30T09:16:35.803Z,35
2022-09-30T09:21:35.104Z,36.3
2022-09-30T09:26:33.101Z,34.6
2022-09-30T09:31:31.263Z,35.7
2022-09-30T09:36:29.983Z,35.3
2022-09-30T09:41:27.992Z,35.7
2022-09-30T09:46:27.090Z,36.5
2022-09-30T09:51:25.375Z,36
2022-09-30T09:56:22.908Z,34.3
2022-09-30T10:01:21.407Z,35.2
2022-09-30T10:06:19.815Z,35.7
2022-09-30T10:11:17.958Z,36.5
2022-09-30T10:16:15.954Z,36
2022-09-30T10:21:12.932Z,36.1
2022-09-30T10:26:11.153Z,35.7
2022-09-30T10:31:09.279Z,36.9
2022-09-30T10:36:07.854Z,37.9
2022-09-30T10:41:06.759Z,37.5
2022-09-30T10:46:24.967Z,38.2
2022-09-30T10:51:03.544Z,38.3
2022-09-30T10:56:00.793Z,35.1
2022-09-30T11:00:59.846Z,37.4
2022-09-30T11:05:58.977Z,36.5
2022-09-30T11:10:55.661Z,35.3
2022-09-30T11:15:52.392Z,34
2022-09-30T11:20:49.205Z,32.9
2022-09-30T11:25:47.674Z,31.6
2022-09-30T11:30:44.244Z,31
2022-09-30T11:35:42.418Z,31.1
2022-09-30T11:40:40.492Z,32
2022-09-30T11:45:38.836Z,31.5
2022-09-30T11:50:37.120Z,33.3
2022-09-30T11:55:38.350Z,36
2022-09-30T12:00:37.395Z,36
2022-09-30T12:05:35.937Z,35.7
2022-09-30T12:10:34.011Z,36.4
2022-09-30T12:15:31.845Z,36.2
2022-09-30T12:20:29.104Z,35.9
2022-09-30T12:25:27.170Z,35.6
2022-09-30T12:30:24.284Z,32.4
2022-09-30T12:35:19.779Z,29.5
2022-09-30T12:40:18.975Z,31.3
2022-09-30T12:45:17.183Z,30.6
2022-09-30T12:50:14.408Z,28.9
2022-09-30T12:55:11.396Z,27.8
2022-09-30T13:00:08.997Z,27.6
2022-09-30T13:05:06.941Z,27.4
2022-09-30T13:10:05.444Z,27.6
2022-09-30T13:15:05.922Z,27.4
2022-09-30T13:20:02.430Z,27.2
2022-09-30T13:24:58.816Z,25.8
2022-09-30T13:29:57.136Z,26.2
2022-09-30T13:34:55.482Z,26.2
2022-09-30T13:39:53.577Z,26.2
2022-09-30T13:44:55.278Z,26.2
2022-09-30T13:49:49.251Z,25.5
2022-09-30T13:54:46.855Z,25.1
2022-09-30T13:59:44.530Z,24.9
2022-09-30T14:04:42.393Z,24.4
2022-09-30T14:09:40.306Z,24.2
2022-09-30T14:14:38.248Z,23.9
2022-09-30T14:19:36.589Z,24.1
2022-09-30T14:24:37.719Z,24.5
2022-09-30T14:29:33.649Z,24.5
2022-09-30T14:39:33.253Z,23.3
2022-09-30T14:44:30.675Z,22.7
2022-09-30T14:49:28.550Z,22.2
2022-09-30T14:54:26.294Z,22
2022-09-30T14:59:24.084Z,21.7
2022-09-30T15:04:21.931Z,21.1
2022-09-30T15:09:19.475Z,20.2
2022-09-30T15:14:16.987Z,19.6
2022-09-30T15:19:14.611Z,19
2022-09-30T15:24:12.353Z,18.6
2022-09-30T15:29:10.161Z,18.3
2022-09-30T15:34:08.022Z,17.7
2022-09-30T15:39:05.682Z,17.4
2022-09-30T15:44:03.497Z,17.1
2022-09-30T15:49:01.304Z,17
2022-09-30T15:53:59.294Z,16.8
2022-09-30T15:58:57.486Z,16.6
2022-09-30T16:03:55.487Z,16.4
2022-09-30T16:08:53.435Z,16.1
2022-09-30T16:13:51.308Z,15.8
2022-09-30T16:18:49.233Z,15.6
2022-09-30T16:23:47.049Z,15.2
2022-09-30T16:28:44.944Z,15.1
2022-09-30T16:33:43.007Z,14.9
2022-09-30T16:38:41.022Z,14.6
2022-09-30T16:43:39.021Z,14.5
2022-09-30T16:48:36.890Z,14.5
2022-09-30T16:53:35.028Z,14.4
2022-09-30T16:58:33.039Z,14.3
2022-09-30T17:03:31.160Z,13.9
2022-09-30T17:08:29.232Z,14.1
2022-09-30T17:13:27.102Z,14
2022-09-30T17:18:25.355Z,13.8
2022-09-30T17:23:23.327Z,13.7
2022-09-30T17:28:21.389Z,13.6
2022-09-30T17:33:19.481Z,13.6
2022-09-30T17:38:17.588Z,13.4
2022-09-30T17:43:15.595Z,13.3
2022-09-30T17:48:13.626Z,13.2
2022-09-30T17:53:11.767Z,13.1
2022-09-30T17:58:09.992Z,13.3
2022-09-30T18:03:08.047Z,13.3
2022-09-30T18:08:06.327Z,13.3
2022-09-30T18:13:04.352Z,13.2
2022-09-30T18:18:02.468Z,13.1
2022-09-30T18:23:00.794Z,13.1
2022-09-30T18:27:59.329Z,13.1
2022-09-30T18:32:57.433Z,13.1
2022-09-30T18:37:55.796Z,13.1
2022-09-30T18:42:54.121Z,13.2
2022-09-30T18:47:52.327Z,13.4
2022-09-30T18:52:50.577Z,13.7
2022-09-30T18:57:49.156Z,14
2022-09-30T19:02:47.362Z,14.1
2022-09-30T19:07:45.371Z,14.4
2022-09-30T19:12:43.829Z,14.7
2022-09-30T19:17:42.209Z,14.8
2022-09-30T19:22:40.368Z,14.8
2022-09-30T19:27:38.470Z,14.6
2022-09-30T19:32:36.617Z,14.4
2022-09-30T19:37:34.736Z,14.3
2022-09-30T19:42:33.020Z,14.2
2022-09-30T19:47:34.295Z,14.3
2022-09-30T19:52:29.712Z,14
2022-09-30T19:57:28.236Z,13.7
2022-09-30T20:02:26.667Z,13.4
2022-09-30T20:07:25.503Z,13.3
2022-09-30T20:12:23.782Z,13.4
2022-09-30T20:17:22.284Z,13.9
2022-09-30T20:22:20.826Z,14.2
2022-09-30T20:27:19.238Z,14.3
2022-09-30T20:32:17.332Z,13.9
2022-09-30T20:37:15.127Z,13.3
2022-09-30T20:42:12.563Z,12.9
2022-09-30T20:47:10.459Z,12.8
2022-09-30T20:52:08.589Z,12.9
2022-09-30T20:57:07.877Z,13.3
2022-09-30T21:02:05.601Z,13.4
2022-09-30T21:07:03.734Z,13.3
2022-09-30T21:12:01.893Z,13.1
2022-09-30T21:16:59.840Z,12.7
2022-09-30T21:21:57.795Z,12.6
2022-09-30T21:26:55.537Z,12.3
2022-09-30T21:31:53.600Z,12.1
2022-09-30T21:36:51.606Z,11.8
2022-09-30T21:41:49.314Z,11.7
2022-09-30T21:46:48.631Z,11.7
2022-09-30T21:51:45.615Z,11.6
2022-09-30T21:56:43.593Z,11.5
2022-09-30T22:01:41.303Z,11.2
2022-09-30T22:06:39.340Z,11.1
2022-09-30T22:11:37.568Z,11.1
2022-09-30T22:16:35.640Z,10.9
2022-09-30T22:21:34.060Z,10.9
2022-09-30T22:26:31.656Z,11.1
2022-09-30T22:31:29.601Z,11.1
2022-09-30T22:36:27.542Z,11.1
2022-09-30T22:41:25.727Z,11
2022-09-30T22:46:23.831Z,10.9
2022-09-30T22:51:21.997Z,11
2022-09-30T22:56:20.213Z,11
2022-09-30T23:01:18.276Z,10.8
2022-09-30T23:06:16.395Z,10.7
2022-09-30T23:11:14.518Z,10.8
2022-09-30T23:16:12.603Z,10.7
2022-09-30T23:21:10.636Z,10.6
2022-09-30T23:26:08.576Z,10.7
2022-09-30T23:31:06.841Z,10.8
2022-09-30T23:36:05.153Z,10.7
2022-09-30T23:41:03.334Z,10.7
2022-09-30T23:46:01.473Z,10.7
2022-09-30T23:50:59.568Z,10.9
2022-09-30T23:55:57.805Z,10.8
